sensor_id;sensor_type;location;lat;lon;timestamp;temperature;humidity
7129;DHT22;3606;52.930;8.644;2023-04-01T00:02:24;10.10;99.90
7129;DHT22;3606;52.930;8.644;2023-04-01T00:04:50;10.10;99.90
7129;DHT22;3606;52.930;8.644;2023-04-01T00:07:15;10.10;99.90
7129;DHT22;3606;52.930;8.644;2023-04-01T00:09:41;10.10;99.90
7129;DHT22;3606;52.930;8.644;2023-04-01T00:12:07;10.10;99.90
7129;DHT22;3606;52.930;8.644;2023-04-01T00:14:32;10.00;99.90
7129;DHT22;3606;52.930;8.644;2023-04-01T00:16:58;10.00;99.90
7129;DHT22;3606;52.930;8.644;2023-04-01T00:19:23;10.00;99.90
7129;DHT22;3606;52.930;8.644;2023-04-01T00:21:49;10.00;99.90
7129;DHT22;3606;52.930;8.644;2023-04-01T00:24:14;10.00;99.90
7129;DHT22;3606;52.930;8.644;2023-04-01T00:26:40;10.00;99.90
7129;DHT22;3606;52.930;8.644;2023-04-01T00:29:07;10.00;99.90
7129;DHT22;3606;52.930;8.644;2023-04-01T00:31:33;10.00;99.90
7129;DHT22;3606;52.930;8.644;2023-04-01T00:33:59;10.00;99.90
7129;DHT22;3606;52.930;8.644;2023-04-01T00:36:24;10.00;99.90
7129;DHT22;3606;52.930;8.644;2023-04-01T00:38:50;10.00;99.90
7129;DHT22;3606;52.930;8.644;2023-04-01T00:41:17;10.00;99.90
7129;DHT22;3606;52.930;8.644;2023-04-01T00:43:46;10.00;99.90
7129;DHT22;3606;52.930;8.644;2023-04-01T00:46:12;10.00;99.90
7129;DHT22;3606;52.930;8.644;2023-04-01T00:48:41;10.00;99.90
7129;DHT22;3606;52.930;8.644;2023-04-01T00:51:22;10.00;99.90
7129;DHT22;3606;52.930;8.644;2023-04-01T00:53:51;10.00;99.90
7129;DHT22;3606;52.930;8.644;2023-04-01T00:56:21;10.00;99.90
7129;DHT22;3606;52.930;8.644;2023-04-01T00:58:51;9.90;99.90
7129;DHT22;3606;52.930;8.644;2023-04-01T01:01:21;10.00;99.90
7129;DHT22;3606;52.930;8.644;2023-04-01T01:03:48;10.00;99.90
7129;DHT22;3606;52.930;8.644;2023-04-01T01:08:55;10.00;99.90
7129;DHT22;3606;52.930;8.644;2023-04-01T01:11:33;10.00;99.90
7129;DHT22;3606;52.930;8.644;2023-04-01T01:14:57;10.00;99.90
7129;DHT22;3606;52.930;8.644;2023-04-01T01:17:13;10.00;99.90
7129;DHT22;3606;52.930;8.644;2023-04-01T01:20:22;10.00;99.90
7129;DHT22;3606;52.930;8.644;2023-04-01T01:26:02;10.00;99.90
7129;DHT22;3606;52.930;8.644;2023-04-01T01:28:47;9.90;99.90
7129;DHT22;3606;52.930;8.644;2023-04-01T01:31:41;10.00;99.90
7129;DHT22;3606;52.930;8.644;2023-04-01T01:34:22;9.90;99.90
7129;DHT22;3606;52.930;8.644;2023-04-01T01:36:59;9.90;99.90
7129;DHT22;3606;52.930;8.644;2023-04-01T01:39:29;9.90;99.90
7129;DHT22;3606;52.930;8.644;2023-04-01T01:41:57;9.90;99.90
7129;DHT22;3606;52.930;8.644;2023-04-01T01:44:26;9.90;99.90
7129;DHT22;3606;52.930;8.644;2023-04-01T01:46:53;9.90;99.90
7129;DHT22;3606;52.930;8.644;2023-04-01T01:49:19;9.90;99.90
7129;DHT22;3606;52.930;8.644;2023-04-01T01:51:45;9.90;99.90
7129;DHT22;3606;52.930;8.644;2023-04-01T01:54:16;9.90;99.90
7129;DHT22;3606;52.930;8.644;2023-04-01T01:56:44;9.90;99.90
7129;DHT22;3606;52.930;8.644;2023-04-01T01:59:11;9.80;99.90
7129;DHT22;3606;52.930;8.644;2023-04-01T02:01:42;9.80;99.90
7129;DHT22;3606;52.930;8.644;2023-04-01T02:04:09;9.80;99.90
7129;DHT22;3606;52.930;8.644;2023-04-01T02:06:39;9.90;99.90
7129;DHT22;3606;52.930;8.644;2023-04-01T02:09:08;9.90;99.90
7129;DHT22;3606;52.930;8.644;2023-04-01T02:11:47;9.90;99.90
7129;DHT22;3606;52.930;8.644;2023-04-01T02:14:19;9.80;99.90
7129;DHT22;3606;52.930;8.644;2023-04-01T02:19:13;9.80;99.90
7129;DHT22;3606;52.930;8.644;2023-04-01T02:21:40;9.80;99.90
7129;DHT22;3606;52.930;8.644;2023-04-01T02:24:11;9.80;99.90
7129;DHT22;3606;52.930;8.644;2023-04-01T02:26:38;9.80;99.90
7129;DHT22;3606;52.930;8.644;2023-04-01T02:29:06;9.80;99.90
7129;DHT22;3606;52.930;8.644;2023-04-01T02:31:34;9.80;99.90
7129;DHT22;3606;52.930;8.644;2023-04-01T02:34:00;9.80;99.90
7129;DHT22;3606;52.930;8.644;2023-04-01T02:36:27;9.80;99.90
7129;DHT22;3606;52.930;8.644;2023-04-01T02:38:53;9.80;99.90
7129;DHT22;3606;52.930;8.644;2023-04-01T02:41:20;9.80;99.90
7129;DHT22;3606;52.930;8.644;2023-04-01T02:43:46;9.70;99.90
7129;DHT22;3606;52.930;8.644;2023-04-01T02:46:12;9.70;99.90
7129;DHT22;3606;52.930;8.644;2023-04-01T02:48:37;9.80;99.90
7129;DHT22;3606;52.930;8.644;2023-04-01T02:51:03;9.70;99.90
7129;DHT22;3606;52.930;8.644;2023-04-01T02:53:29;9.80;99.90
7129;DHT22;3606;52.930;8.644;2023-04-01T02:55:55;9.80;99.90
7129;DHT22;3606;52.930;8.644;2023-04-01T02:58:21;9.80;99.90
7129;DHT22;3606;52.930;8.644;2023-04-01T03:00:47;9.80;99.90
7129;DHT22;3606;52.930;8.644;2023-04-01T03:03:12;9.80;99.90
7129;DHT22;3606;52.930;8.644;2023-04-01T03:05:39;9.80;99.90
7129;DHT22;3606;52.930;8.644;2023-04-01T03:08:04;9.80;99.90
7129;DHT22;3606;52.930;8.644;2023-04-01T03:10:31;9.80;99.90
7129;DHT22;3606;52.930;8.644;2023-04-01T03:12:57;9.70;99.90
7129;DHT22;3606;52.930;8.644;2023-04-01T03:15:22;9.80;99.90
7129;DHT22;3606;52.930;8.644;2023-04-01T03:17:48;9.80;99.90
7129;DHT22;3606;52.930;8.644;2023-04-01T03:20:15;9.70;99.90
7129;DHT22;3606;52.930;8.644;2023-04-01T03:22:40;9.80;99.90
7129;DHT22;3606;52.930;8.644;2023-04-01T03:25:07;9.80;99.90
7129;DHT22;3606;52.930;8.644;2023-04-01T03:27:33;9.80;99.90
7129;DHT22;3606;52.930;8.644;2023-04-01T03:30:01;9.70;99.90
7129;DHT22;3606;52.930;8.644;2023-04-01T03:32:27;9.70;99.90
7129;DHT22;3606;52.930;8.644;2023-04-01T03:34:55;9.70;99.90
7129;DHT22;3606;52.930;8.644;2023-04-01T03:37:22;9.70;99.90
7129;DHT22;3606;52.930;8.644;2023-04-01T03:39:47;9.70;99.90
7129;DHT22;3606;52.930;8.644;2023-04-01T03:42:13;9.70;99.90
7129;DHT22;3606;52.930;8.644;2023-04-01T03:44:38;9.70;99.90
7129;DHT22;3606;52.930;8.644;2023-04-01T03:47:07;9.70;99.90
7129;DHT22;3606;52.930;8.644;2023-04-01T03:49:34;9.70;99.90
7129;DHT22;3606;52.930;8.644;2023-04-01T03:52:00;9.70;99.90
7129;DHT22;3606;52.930;8.644;2023-04-01T03:54:28;9.70;99.90
7129;DHT22;3606;52.930;8.644;2023-04-01T03:56:54;9.60;99.90
7129;DHT22;3606;52.930;8.644;2023-04-01T03:59:20;9.70;99.90
7129;DHT22;3606;52.930;8.644;2023-04-01T04:01:46;9.70;99.90
7129;DHT22;3606;52.930;8.644;2023-04-01T04:04:13;9.70;99.90
7129;DHT22;3606;52.930;8.644;2023-04-01T04:06:39;9.70;99.90
7129;DHT22;3606;52.930;8.644;2023-04-01T04:09:05;9.70;99.90
7129;DHT22;3606;52.930;8.644;2023-04-01T04:11:31;9.70;99.90
7129;DHT22;3606;52.930;8.644;2023-04-01T04:13:58;9.60;99.90
7129;DHT22;3606;52.930;8.644;2023-04-01T04:16:24;9.60;99.90
7129;DHT22;3606;52.930;8.644;2023-04-01T04:18:49;9.60;99.90
7129;DHT22;3606;52.930;8.644;2023-04-01T04:21:16;9.60;99.90
7129;DHT22;3606;52.930;8.644;2023-04-01T04:23:42;9.60;99.90
7129;DHT22;3606;52.930;8.644;2023-04-01T04:26:12;9.60;99.90
7129;DHT22;3606;52.930;8.644;2023-04-01T04:28:38;9.60;99.90
7129;DHT22;3606;52.930;8.644;2023-04-01T04:31:04;9.60;99.90
7129;DHT22;3606;52.930;8.644;2023-04-01T04:33:30;9.60;99.90
7129;DHT22;3606;52.930;8.644;2023-04-01T04:35:57;9.60;99.90
7129;DHT22;3606;52.930;8.644;2023-04-01T04:38:23;9.60;99.90
7129;DHT22;3606;52.930;8.644;2023-04-01T04:40:48;9.60;99.90
7129;DHT22;3606;52.930;8.644;2023-04-01T04:43:15;9.50;99.90
7129;DHT22;3606;52.930;8.644;2023-04-01T04:45:41;9.60;99.90
7129;DHT22;3606;52.930;8.644;2023-04-01T04:48:14;9.60;99.90
7129;DHT22;3606;52.930;8.644;2023-04-01T04:50:44;9.60;99.90
7129;DHT22;3606;52.930;8.644;2023-04-01T04:53:11;9.60;99.90
7129;DHT22;3606;52.930;8.644;2023-04-01T04:55:37;9.60;99.90
7129;DHT22;3606;52.930;8.644;2023-04-01T04:58:03;9.60;99.90
7129;DHT22;3606;52.930;8.644;2023-04-01T05:00:28;9.60;99.90
7129;DHT22;3606;52.930;8.644;2023-04-01T05:02:54;9.60;99.90
7129;DHT22;3606;52.930;8.644;2023-04-01T05:05:19;9.60;99.90
7129;DHT22;3606;52.930;8.644;2023-04-01T05:07:45;9.60;99.90
7129;DHT22;3606;52.930;8.644;2023-04-01T05:10:10;9.60;99.90
7129;DHT22;3606;52.930;8.644;2023-04-01T05:12:36;9.60;99.90
7129;DHT22;3606;52.930;8.644;2023-04-01T05:15:04;9.60;99.90
7129;DHT22;3606;52.930;8.644;2023-04-01T05:17:30;9.50;99.90
7129;DHT22;3606;52.930;8.644;2023-04-01T05:19:56;9.60;99.90
7129;DHT22;3606;52.930;8.644;2023-04-01T05:22:22;9.60;99.90
7129;DHT22;3606;52.930;8.644;2023-04-01T05:24:48;9.60;99.90
7129;DHT22;3606;52.930;8.644;2023-04-01T05:27:14;9.60;99.90
7129;DHT22;3606;52.930;8.644;2023-04-01T05:29:40;9.60;99.90
7129;DHT22;3606;52.930;8.644;2023-04-01T05:32:06;9.60;99.90
7129;DHT22;3606;52.930;8.644;2023-04-01T05:34:31;9.60;99.90
7129;DHT22;3606;52.930;8.644;2023-04-01T05:36:57;9.60;99.90
7129;DHT22;3606;52.930;8.644;2023-04-01T05:39:22;9.60;99.90
7129;DHT22;3606;52.930;8.644;2023-04-01T05:41:48;9.60;99.90
7129;DHT22;3606;52.930;8.644;2023-04-01T05:44:14;9.60;99.90
7129;DHT22;3606;52.930;8.644;2023-04-01T05:46:40;9.60;99.90
7129;DHT22;3606;52.930;8.644;2023-04-01T05:49:06;9.70;99.90
7129;DHT22;3606;52.930;8.644;2023-04-01T05:51:31;9.70;99.90
7129;DHT22;3606;52.930;8.644;2023-04-01T05:53:57;9.70;99.90
7129;DHT22;3606;52.930;8.644;2023-04-01T05:56:22;9.80;99.90
7129;DHT22;3606;52.930;8.644;2023-04-01T05:58:51;9.80;99.90
7129;DHT22;3606;52.930;8.644;2023-04-01T06:01:18;9.80;99.90
7129;DHT22;3606;52.930;8.644;2023-04-01T06:03:44;9.90;99.90
7129;DHT22;3606;52.930;8.644;2023-04-01T06:06:16;10.00;99.90
7129;DHT22;3606;52.930;8.644;2023-04-01T06:08:44;10.00;99.90
7129;DHT22;3606;52.930;8.644;2023-04-01T06:27:20;10.30;99.90
7129;DHT22;3606;52.930;8.644;2023-04-01T06:29:55;10.30;99.90
7129;DHT22;3606;52.930;8.644;2023-04-01T06:41:13;10.40;99.90
7129;DHT22;3606;52.930;8.644;2023-04-01T06:54:55;10.60;99.90
7129;DHT22;3606;52.930;8.644;2023-04-01T06:59:57;10.60;99.90
7129;DHT22;3606;52.930;8.644;2023-04-01T07:02:25;10.60;99.90
7129;DHT22;3606;52.930;8.644;2023-04-01T07:04:54;10.60;99.90
7129;DHT22;3606;52.930;8.644;2023-04-01T07:07:42;10.60;99.90
7129;DHT22;3606;52.930;8.644;2023-04-01T07:10:21;10.60;99.90
7129;DHT22;3606;52.930;8.644;2023-04-01T07:13:00;10.70;99.90
7129;DHT22;3606;52.930;8.644;2023-04-01T07:15:37;10.80;99.90
7129;DHT22;3606;52.930;8.644;2023-04-01T07:18:21;10.90;99.90
7129;DHT22;3606;52.930;8.644;2023-04-01T07:20:51;10.90;99.90
7129;DHT22;3606;52.930;8.644;2023-04-01T07:23:24;11.10;99.90
7129;DHT22;3606;52.930;8.644;2023-04-01T07:25:55;11.10;99.90
7129;DHT22;3606;52.930;8.644;2023-04-01T07:28:21;11.20;99.90
7129;DHT22;3606;52.930;8.644;2023-04-01T07:33:22;11.30;99.90
7129;DHT22;3606;52.930;8.644;2023-04-01T07:35:57;11.20;99.90
7129;DHT22;3606;52.930;8.644;2023-04-01T07:44:34;11.20;99.90
7129;DHT22;3606;52.930;8.644;2023-04-01T07:52:53;11.20;99.90
7129;DHT22;3606;52.930;8.644;2023-04-01T08:01:00;11.40;99.90
7129;DHT22;3606;52.930;8.644;2023-04-01T08:06:51;11.60;99.90
7129;DHT22;3606;52.930;8.644;2023-04-01T08:14:48;11.80;99.90
7129;DHT22;3606;52.930;8.644;2023-04-01T08:20:23;11.80;99.90
7129;DHT22;3606;52.930;8.644;2023-04-01T08:22:57;11.90;99.90
7129;DHT22;3606;52.930;8.644;2023-04-01T08:25:27;12.20;99.90
7129;DHT22;3606;52.930;8.644;2023-04-01T08:28:11;12.40;99.90
7129;DHT22;3606;52.930;8.644;2023-04-01T08:30:50;12.50;99.90
7129;DHT22;3606;52.930;8.644;2023-04-01T08:33:31;13.10;99.90
7129;DHT22;3606;52.930;8.644;2023-04-01T08:36:05;13.30;99.90
7129;DHT22;3606;52.930;8.644;2023-04-01T08:38:46;13.50;99.90
7129;DHT22;3606;52.930;8.644;2023-04-01T08:41:31;13.80;99.90
7129;DHT22;3606;52.930;8.644;2023-04-01T08:44:53;13.70;99.90
7129;DHT22;3606;52.930;8.644;2023-04-01T08:53:00;13.20;99.90
7129;DHT22;3606;52.930;8.644;2023-04-01T09:01:10;12.50;99.90
7129;DHT22;3606;52.930;8.644;2023-04-01T09:09:36;12.30;99.90
7129;DHT22;3606;52.930;8.644;2023-04-01T09:12:26;12.40;99.90
7129;DHT22;3606;52.930;8.644;2023-04-01T09:23:43;12.60;99.90
7129;DHT22;3606;52.930;8.644;2023-04-01T09:40:21;13.80;99.90
7129;DHT22;3606;52.930;8.644;2023-04-01T09:45:58;13.60;99.90
7129;DHT22;3606;52.930;8.644;2023-04-01T09:49:00;13.50;99.90
7129;DHT22;3606;52.930;8.644;2023-04-01T09:54:45;13.50;99.90
7129;DHT22;3606;52.930;8.644;2023-04-01T10:17:31;14.00;99.90
7129;DHT22;3606;52.930;8.644;2023-04-01T10:40:13;12.00;99.90
7129;DHT22;3606;52.930;8.644;2023-04-01T10:56:30;12.20;99.90
7129;DHT22;3606;52.930;8.644;2023-04-01T10:59:36;12.20;99.90
7129;DHT22;3606;52.930;8.644;2023-04-01T11:11:39;12.40;99.90
7129;DHT22;3606;52.930;8.644;2023-04-01T11:17:04;11.80;99.90
7129;DHT22;3606;52.930;8.644;2023-04-01T11:31:43;10.30;99.90
7129;DHT22;3606;52.930;8.644;2023-04-01T11:39:59;10.30;99.90
7129;DHT22;3606;52.930;8.644;2023-04-01T11:48:21;10.50;99.90
7129;DHT22;3606;52.930;8.644;2023-04-01T11:51:03;10.30;99.90
7129;DHT22;3606;52.930;8.644;2023-04-01T11:53:37;10.30;99.90
7129;DHT22;3606;52.930;8.644;2023-04-01T11:56:39;10.20;99.90
7129;DHT22;3606;52.930;8.644;2023-04-01T12:12:46;10.00;99.90
7129;DHT22;3606;52.930;8.644;2023-04-01T12:32:15;9.60;99.90
7129;DHT22;3606;52.930;8.644;2023-04-01T12:37:36;9.50;99.90
7129;DHT22;3606;52.930;8.644;2023-04-01T12:40:35;9.60;99.90
7129;DHT22;3606;52.930;8.644;2023-04-01T12:51:28;9.20;99.90
7129;DHT22;3606;52.930;8.644;2023-04-01T12:54:11;9.00;99.90
7129;DHT22;3606;52.930;8.644;2023-04-01T13:07:52;8.80;99.90
7129;DHT22;3606;52.930;8.644;2023-04-01T13:10:36;8.80;99.90
7129;DHT22;3606;52.930;8.644;2023-04-01T13:24:30;8.90;99.90
7129;DHT22;3606;52.930;8.644;2023-04-01T13:56:24;8.90;99.90
7129;DHT22;3606;52.930;8.644;2023-04-01T14:15:29;8.70;99.90
7129;DHT22;3606;52.930;8.644;2023-04-01T14:40:05;8.20;99.90
7129;DHT22;3606;52.930;8.644;2023-04-01T14:48:38;8.20;99.90
7129;DHT22;3606;52.930;8.644;2023-04-01T14:51:36;8.30;99.90
7129;DHT22;3606;52.930;8.644;2023-04-01T14:56:50;8.20;99.90
7129;DHT22;3606;52.930;8.644;2023-04-01T15:01:55;8.10;99.90
7129;DHT22;3606;52.930;8.644;2023-04-01T15:04:41;8.10;99.90
7129;DHT22;3606;52.930;8.644;2023-04-01T15:17:45;8.00;99.90
7129;DHT22;3606;52.930;8.644;2023-04-01T15:23:40;7.80;99.90
7129;DHT22;3606;52.930;8.644;2023-04-01T15:37:09;7.70;99.90
7129;DHT22;3606;52.930;8.644;2023-04-01T15:40:11;7.70;99.90
7129;DHT22;3606;52.930;8.644;2023-04-01T15:45:18;7.60;99.90
7129;DHT22;3606;52.930;8.644;2023-04-01T15:48:02;7.60;99.90
7129;DHT22;3606;52.930;8.644;2023-04-01T15:58:46;7.40;99.90
7129;DHT22;3606;52.930;8.644;2023-04-01T16:01:15;7.40;99.90
7129;DHT22;3606;52.930;8.644;2023-04-01T16:04:11;7.40;99.90
7129;DHT22;3606;52.930;8.644;2023-04-01T16:26:33;7.10;99.90
7129;DHT22;3606;52.930;8.644;2023-04-01T16:34:30;7.00;99.90
7129;DHT22;3606;52.930;8.644;2023-04-01T16:37:13;7.00;99.90
7129;DHT22;3606;52.930;8.644;2023-04-01T16:45:26;6.70;99.90
7129;DHT22;3606;52.930;8.644;2023-04-01T16:48:01;6.80;99.90
7129;DHT22;3606;52.930;8.644;2023-04-01T16:50:51;6.70;99.90
7129;DHT22;3606;52.930;8.644;2023-04-01T16:53:24;6.70;99.90
7129;DHT22;3606;52.930;8.644;2023-04-01T16:56:25;6.70;99.90
7129;DHT22;3606;52.930;8.644;2023-04-01T16:59:03;6.70;99.90
7129;DHT22;3606;52.930;8.644;2023-04-01T17:01:36;6.60;99.90
7129;DHT22;3606;52.930;8.644;2023-04-01T17:04:34;6.50;99.90
7129;DHT22;3606;52.930;8.644;2023-04-01T17:07:21;6.50;99.90
7129;DHT22;3606;52.930;8.644;2023-04-01T17:20:46;6.40;99.90
7129;DHT22;3606;52.930;8.644;2023-04-01T17:23:34;6.40;99.90
7129;DHT22;3606;52.930;8.644;2023-04-01T17:26:32;6.50;99.90
7129;DHT22;3606;52.930;8.644;2023-04-01T17:29:16;6.50;99.90
7129;DHT22;3606;52.930;8.644;2023-04-01T17:31:46;6.40;99.90
7129;DHT22;3606;52.930;8.644;2023-04-01T17:40:25;6.20;99.90
7129;DHT22;3606;52.930;8.644;2023-04-01T17:43:22;6.20;99.90
7129;DHT22;3606;52.930;8.644;2023-04-01T17:45:57;6.10;99.90
7129;DHT22;3606;52.930;8.644;2023-04-01T17:51:32;6.10;99.90
7129;DHT22;3606;52.930;8.644;2023-04-01T18:00:02;6.00;99.90
7129;DHT22;3606;52.930;8.644;2023-04-01T18:19:32;5.80;99.90
7129;DHT22;3606;52.930;8.644;2023-04-01T18:27:44;5.70;99.90
7129;DHT22;3606;52.930;8.644;2023-04-01T18:30:18;5.60;99.90
7129;DHT22;3606;52.930;8.644;2023-04-01T18:35:50;5.60;99.90
7129;DHT22;3606;52.930;8.644;2023-04-01T18:47:25;5.50;99.90
7129;DHT22;3606;52.930;8.644;2023-04-01T18:50:07;5.40;99.90
7129;DHT22;3606;52.930;8.644;2023-04-01T18:52:43;5.30;99.90
7129;DHT22;3606;52.930;8.644;2023-04-01T18:58:22;5.30;99.90
7129;DHT22;3606;52.930;8.644;2023-04-01T19:01:16;5.30;99.90
7129;DHT22;3606;52.930;8.644;2023-04-01T19:09:30;5.30;99.90
7129;DHT22;3606;52.930;8.644;2023-04-01T19:12:30;5.30;99.90
7129;DHT22;3606;52.930;8.644;2023-04-01T19:15:13;5.30;99.90
7129;DHT22;3606;52.930;8.644;2023-04-01T19:20:28;5.20;99.90
7129;DHT22;3606;52.930;8.644;2023-04-01T19:25:51;5.10;99.90
7129;DHT22;3606;52.930;8.644;2023-04-01T19:31:30;5.10;99.90
7129;DHT22;3606;52.930;8.644;2023-04-01T19:37:02;5.00;99.90
7129;DHT22;3606;52.930;8.644;2023-04-01T19:48:16;4.80;99.90
7129;DHT22;3606;52.930;8.644;2023-04-01T19:50:55;4.80;99.90
7129;DHT22;3606;52.930;8.644;2023-04-01T19:58:36;4.80;99.90
7129;DHT22;3606;52.930;8.644;2023-04-01T20:01:09;4.80;99.90
7129;DHT22;3606;52.930;8.644;2023-04-01T20:03:58;4.80;99.90
7129;DHT22;3606;52.930;8.644;2023-04-01T20:06:35;4.70;99.90
7129;DHT22;3606;52.930;8.644;2023-04-01T20:12:13;4.70;99.90
7129;DHT22;3606;52.930;8.644;2023-04-01T20:14:53;4.70;99.90
7129;DHT22;3606;52.930;8.644;2023-04-01T20:20:18;4.70;99.90
7129;DHT22;3606;52.930;8.644;2023-04-01T20:25:32;4.70;99.90
7129;DHT22;3606;52.930;8.644;2023-04-01T20:53:15;4.40;99.90
7129;DHT22;3606;52.930;8.644;2023-04-01T21:09:55;4.30;99.90
7129;DHT22;3606;52.930;8.644;2023-04-01T21:15:31;4.30;99.90
7129;DHT22;3606;52.930;8.644;2023-04-01T21:23:42;4.30;99.90
7129;DHT22;3606;52.930;8.644;2023-04-01T21:35:06;4.10;99.90
7129;DHT22;3606;52.930;8.644;2023-04-01T21:37:57;4.10;99.90
7129;DHT22;3606;52.930;8.644;2023-04-01T21:40:36;4.10;99.90
7129;DHT22;3606;52.930;8.644;2023-04-01T22:05:26;3.80;99.90
7129;DHT22;3606;52.930;8.644;2023-04-01T22:13:50;3.80;99.90
7129;DHT22;3606;52.930;8.644;2023-04-01T22:22:12;3.80;99.90
7129;DHT22;3606;52.930;8.644;2023-04-01T22:30:01;3.80;99.90
7129;DHT22;3606;52.930;8.644;2023-04-01T22:35:26;3.70;99.90
7129;DHT22;3606;52.930;8.644;2023-04-01T22:40:47;3.80;99.90
7129;DHT22;3606;52.930;8.644;2023-04-01T22:46:16;3.70;99.90
7129;DHT22;3606;52.930;8.644;2023-04-01T22:48:51;3.70;99.90
7129;DHT22;3606;52.930;8.644;2023-04-01T22:54:31;3.70;99.90
7129;DHT22;3606;52.930;8.644;2023-04-01T23:00:06;3.60;99.90
7129;DHT22;3606;52.930;8.644;2023-04-01T23:02:38;3.60;99.90
7129;DHT22;3606;52.930;8.644;2023-04-01T23:05:06;3.60;99.90
7129;DHT22;3606;52.930;8.644;2023-04-01T23:07:41;3.60;99.90
7129;DHT22;3606;52.930;8.644;2023-04-01T23:12:55;3.50;92.20
7129;DHT22;3606;52.930;8.644;2023-04-01T23:15:23;3.40;99.90
7129;DHT22;3606;52.930;8.644;2023-04-01T23:26:15;3.20;43.20
7129;DHT22;3606;52.930;8.644;2023-04-01T23:28:54;3.10;90.30
7129;DHT22;3606;52.930;8.644;2023-04-01T23:31:30;3.00;55.60
7129;DHT22;3606;52.930;8.644;2023-04-01T23:34:30;2.90;89.50
7129;DHT22;3606;52.930;8.644;2023-04-01T23:36:55;2.70;99.90
7129;DHT22;3606;52.930;8.644;2023-04-01T23:39:39;2.60;99.50
7129;DHT22;3606;52.930;8.644;2023-04-01T23:44:51;2.40;99.90
7129;DHT22;3606;52.930;8.644;2023-04-01T23:47:24;2.40;99.90
7129;DHT22;3606;52.930;8.644;2023-04-01T23:49:56;2.30;99.90
7129;DHT22;3606;52.930;8.644;2023-04-01T23:52:25;2.20;99.90
7129;DHT22;3606;52.930;8.644;2023-04-01T23:55:25;2.20;48.00
